Time,TemperatureF,DewpointF,PressureIn,WindDirection,WindDirectionDegrees,WindSpeedMPH,WindSpeedGustMPH,Humidity,HourlyPrecipIn,Conditions,Clouds,dailyrainin,SoftwareType,DateUTC
2013-04-22 00:01:00,36.3,23.4,30.45,SSE,157,6.3,6.3,59,0.00,,,0.00,WUHU21623XXSP,2013-04-22 04:01:00,
2013-04-22 00:06:00,36.3,23.4,30.45,SSE,157,4.0,7.4,59,0.00,,,0.00,WUHU21623XXSP,2013-04-22 04:06:00,
2013-04-22 00:11:00,36.1,23.2,30.45,SSE,157,5.1,7.4,59,0.00,,,0.00,WUHU21623XXSP,2013-04-22 04:11:00,
2013-04-22 00:16:00,36.0,23.1,30.45,SSE,157,5.4,5.4,59,0.00,,,0.00,WUHU21623XXSP,2013-04-22 04:16:00,
2013-04-22 00:21:00,36.0,23.1,30.45,SSE,157,3.6,6.5,59,0.00,,,0.00,WUHU21623XXSP,2013-04-22 04:21:00,
2013-04-22 00:26:00,35.8,22.9,30.45,South,180,7.6,7.6,59,0.00,,,0.00,WUHU21623XXSP,2013-04-22 04:26:00,
2013-04-22 00:31:00,35.8,22.9,30.45,South,180,7.4,7.6,59,0.00,,,0.00,WUHU21623XXSP,2013-04-22 04:31:00,
2013-04-22 00:36:00,35.8,22.9,30.45,South,180,8.7,8.7,59,0.00,,,0.00,WUHU21623XXSP,2013-04-22 04:36:00,
2013-04-22 00:41:00,35.4,22.6,30.45,SSE,157,2.2,8.7,59,0.00,,,0.00,WUHU21623XXSP,2013-04-22 04:41:00,
2013-04-22 00:46:00,35.4,22.1,30.45,South,180,1.6,3.4,58,0.00,,,0.00,WUHU21623XXSP,2013-04-22 04:46:00,
2013-04-22 00:51:00,35.4,22.1,30.44,SSE,157,3.6,4.7,58,0.00,,,0.00,WUHU21623XXSP,2013-04-22 04:51:00,
2013-04-22 00:56:00,35.2,22.0,30.44,South,180,6.0,6.9,58,0.00,,,0.00,WUHU21623XXSP,2013-04-22 04:56:00,
2013-04-22 01:01:00,35.2,22.0,30.44,South,180,1.6,6.9,58,0.00,,,0.00,WUHU21623XXSP,2013-04-22 05:01:00,
2013-04-22 01:06:00,35.2,22.0,30.44,SSE,157,2.0,2.0,58,0.00,,,0.00,WUHU21623XXSP,2013-04-22 05:06:00,
2013-04-22 01:11:00,35.1,21.8,30.45,South,180,6.0,6.0,58,0.00,,,0.00,WUHU21623XXSP,2013-04-22 05:11:00,
2013-04-22 01:16:00,34.9,21.6,30.44,South,180,0.9,6.7,58,0.00,,,0.00,WUHU21623XXSP,2013-04-22 05:16:00,
2013-04-22 01:21:00,34.9,21.6,30.44,South,180,1.3,6.7,58,0.00,,,0.00,WUHU21623XXSP,2013-04-22 05:21:00,
2013-04-22 01:26:00,34.9,21.6,30.44,SSE,157,4.7,5.1,58,0.00,,,0.00,WUHU21623XXSP,2013-04-22 05:26:00,
2013-04-22 01:31:00,34.7,21.4,30.44,SSE,157,0.0,4.7,58,0.00,,,0.00,WUHU21623XXSP,2013-04-22 05:31:00,
2013-04-22 01:36:00,34.5,21.2,30.44,SSE,157,7.4,7.4,58,0.00,,,0.00,WUHU21623XXSP,2013-04-22 05:36:00,
2013-04-22 01:41:00,34.3,21.5,30.44,South,180,8.3,8.3,59,0.00,,,0.00,WUHU21623XXSP,2013-04-22 05:41:00,
2013-04-22 01:46:00,34.3,21.5,30.44,SSE,157,0.0,8.3,59,0.00,,,0.00,WUHU21623XXSP,2013-04-22 05:46:00,
2013-04-22 01:51:00,34.3,21.5,30.44,SSE,157,7.6,8.1,59,0.00,,,0.00,WUHU21623XXSP,2013-04-22 05:51:00,
2013-04-22 01:56:00,34.3,21.9,30.44,SSE,157,2.9,7.6,60,0.00,,,0.00,WUHU21623XXSP,2013-04-22 05:56:00,
2013-04-22 02:01:00,34.3,21.9,30.43,SSE,157,4.5,4.5,60,0.00,,,0.00,WUHU21623XXSP,2013-04-22 06:01:00,
2013-04-22 02:06:00,34.3,21.9,30.43,SSE,157,0.0,6.7,60,0.00,,,0.00,WUHU21623XXSP,2013-04-22 06:06:00,
2013-04-22 02:11:00,34.3,21.9,30.43,SSE,157,0.0,6.7,61,0.00,,,0.00,WUHU21623XXSP,2013-04-22 06:11:00,
2013-04-22 02:16:00,34.3,22.3,30.43,SSE,157,6.0,6.0,61,0.00,,,0.00,WUHU21623XXSP,2013-04-22 06:16:00,
2013-04-22 02:21:00,34.3,22.6,30.42,SSE,157,2.7,6.7,62,0.00,,,0.00,WUHU21623XXSP,2013-04-22 06:21:00,
2013-04-22 02:26:00,34.3,22.6,30.42,SSE,157,2.7,6.7,62,0.00,,,0.00,WUHU21623XXSP,2013-04-22 06:26:00,
2013-04-22 02:31:00,34.3,22.6,30.42,SSE,157,2.5,3.1,62,0.00,,,0.00,WUHU21623XXSP,2013-04-22 06:31:00,
2013-04-22 02:36:00,34.3,23.0,30.42,SSE,157,0.0,10.1,63,0.00,,,0.00,WUHU21623XXSP,2013-04-22 06:36:00,
2013-04-22 02:41:00,34.3,23.0,30.41,NNE,22,1.8,10.1,63,0.00,,,0.00,WUHU21623XXSP,2013-04-22 06:41:00,
2013-04-22 02:46:00,34.3,23.0,30.42,SSE,157,2.7,4.0,63,0.00,,,0.00,WUHU21623XXSP,2013-04-22 06:46:00,
2013-04-22 02:51:00,34.3,23.0,30.41,SSE,157,6.3,6.3,63,0.00,,,0.00,WUHU21623XXSP,2013-04-22 06:51:00,
2013-04-22 02:56:00,34.3,23.4,30.41,SSE,157,3.8,6.3,64,0.00,,,0.00,WUHU21623XXSP,2013-04-22 06:56:00,
2013-04-22 03:01:00,34.3,23.4,30.41,SSE,157,2.5,4.7,64,0.00,,,0.00,WUHU21623XXSP,2013-04-22 07:01:00,
2013-04-22 03:06:00,34.3,23.4,30.41,SSE,157,3.1,4.0,64,0.00,,,0.00,WUHU21623XXSP,2013-04-22 07:06:00,
2013-04-22 03:11:00,34.3,23.7,30.41,SSE,157,0.0,4.3,65,0.00,,,0.00,WUHU21623XXSP,2013-04-22 07:11:00,
2013-04-22 03:16:00,34.3,23.7,30.41,South,180,1.8,4.3,65,0.00,,,0.00,WUHU21623XXSP,2013-04-22 07:16:00,
2013-04-22 03:21:00,34.2,23.5,30.41,SSE,157,3.1,3.1,65,0.00,,,0.00,WUHU21623XXSP,2013-04-22 07:21:00,
2013-04-22 03:26:00,34.0,23.4,30.41,SSE,157,0.0,3.1,66,0.00,,,0.00,WUHU21623XXSP,2013-04-22 07:26:00,
2013-04-22 03:31:00,34.0,23.7,30.41,SSE,157,0.0,0.0,66,0.00,,,0.00,WUHU21623XXSP,2013-04-22 07:31:00,
2013-04-22 03:36:00,33.8,23.5,30.40,SSE,157,2.2,5.1,66,0.00,,,0.00,WUHU21623XXSP,2013-04-22 07:36:00,
2013-04-22 03:41:00,33.8,23.5,30.40,SSE,157,2.2,5.1,66,0.00,,,0.00,WUHU21623XXSP,2013-04-22 07:41:00,
2013-04-22 03:46:00,33.6,23.4,30.40,South,180,0.0,2.2,66,0.00,,,0.00,WUHU21623XXSP,2013-04-22 07:46:00,
2013-04-22 03:51:00,33.6,23.7,30.40,SSE,157,3.6,3.6,67,0.00,,,0.00,WUHU21623XXSP,2013-04-22 07:51:00,
2013-04-22 03:56:00,33.6,23.7,30.40,South,180,4.5,4.5,67,0.00,,,0.00,WUHU21623XXSP,2013-04-22 07:56:00,
2013-04-22 04:01:00,33.6,24.1,30.40,South,180,1.6,4.5,68,0.00,,,0.00,WUHU21623XXSP,2013-04-22 08:01:00,
2013-04-22 04:06:00,33.6,24.1,30.41,South,180,4.7,4.7,68,0.00,,,0.00,WUHU21623XXSP,2013-04-22 08:06:00,
2013-04-22 04:11:00,33.6,24.1,30.40,South,180,4.7,4.7,68,0.00,,,0.00,WUHU21623XXSP,2013-04-22 08:11:00,
2013-04-22 04:16:00,33.6,24.1,30.40,South,180,4.7,4.7,69,0.00,,,0.00,WUHU21623XXSP,2013-04-22 08:16:00,
2013-04-22 04:21:00,33.6,24.5,30.40,SSE,157,4.9,6.7,69,0.00,,,0.00,WUHU21623XXSP,2013-04-22 08:21:00,
2013-04-22 04:26:00,33.6,24.8,30.40,SSE,157,4.9,6.7,70,0.00,,,0.00,WUHU21623XXSP,2013-04-22 08:26:00,
2013-04-22 04:31:00,33.6,24.8,30.39,SSE,157,4.0,4.9,70,0.00,,,0.00,WUHU21623XXSP,2013-04-22 08:31:00,
2013-04-22 04:36:00,33.8,25.3,30.39,SSE,157,7.8,7.8,71,0.00,,,0.00,WUHU21623XXSP,2013-04-22 08:36:00,
2013-04-22 04:41:00,34.0,25.5,30.39,South,180,6.5,7.8,71,0.00,,,0.00,WUHU21623XXSP,2013-04-22 08:41:00,
2013-04-22 04:46:00,34.0,25.5,30.38,SSE,157,2.0,6.5,71,0.00,,,0.00,WUHU21623XXSP,2013-04-22 08:46:00,
2013-04-22 04:51:00,34.2,25.7,30.38,SSE,157,6.0,6.0,71,0.00,,,0.00,WUHU21623XXSP,2013-04-22 08:51:00,
2013-04-22 04:56:00,34.2,25.7,30.39,SSE,157,0.0,6.0,71,0.00,,,0.00,WUHU21623XXSP,2013-04-22 08:56:00,
2013-04-22 05:01:00,34.0,25.8,30.38,SSE,157,6.7,8.5,72,0.00,,,0.00,WUHU21623XXSP,2013-04-22 09:01:00,
2013-04-22 05:06:00,34.2,26.0,30.39,SSE,157,8.5,8.5,72,0.00,,,0.00,WUHU21623XXSP,2013-04-22 09:06:00,
2013-04-22 05:11:00,34.0,25.8,30.38,South,180,0.0,8.5,72,0.00,,,0.00,WUHU21623XXSP,2013-04-22 09:11:00,
2013-04-22 05:16:00,34.0,25.8,30.39,South,180,0.0,4.3,72,0.00,,,0.00,WUHU21623XXSP,2013-04-22 09:16:00,
2013-04-22 05:21:00,34.0,26.1,30.38,SSE,157,0.9,4.3,73,0.00,,,0.00,WUHU21623XXSP,2013-04-22 09:21:00,
2013-04-22 05:26:00,34.0,26.1,30.38,SSE,157,0.0,2.5,73,0.00,,,0.00,WUHU21623XXSP,2013-04-22 09:26:00,
2013-04-22 05:31:00,33.8,26.0,30.38,SSE,157,0.0,2.9,73,0.00,,,0.00,WUHU21623XXSP,2013-04-22 09:31:00,
2013-04-22 05:36:00,33.6,25.8,30.38,South,180,1.8,2.9,73,0.00,,,0.00,WUHU21623XXSP,2013-04-22 09:36:00,
2013-04-22 05:41:00,33.6,25.8,30.38,South,180,2.0,2.0,73,0.00,,,0.00,WUHU21623XXSP,2013-04-22 09:41:00,
2013-04-22 05:46:00,33.6,25.8,30.38,SSE,157,0.0,2.0,73,0.00,,,0.00,WUHU21623XXSP,2013-04-22 09:46:00,
2013-04-22 05:51:00,33.4,26.0,30.39,South,180,0.0,2.0,74,0.00,,,0.00,WUHU21623XXSP,2013-04-22 09:51:00,
2013-04-22 05:56:00,33.4,26.0,30.38,South,180,0.0,0.0,74,0.00,,,0.00,WUHU21623XXSP,2013-04-22 09:56:00,
2013-04-22 06:01:00,33.4,26.3,30.39,South,180,0.0,3.1,75,0.00,,,0.00,WUHU21623XXSP,2013-04-22 10:01:00,
2013-04-22 06:06:00,33.1,26.0,30.38,South,180,0.0,3.1,75,0.00,,,0.00,WUHU21623XXSP,2013-04-22 10:06:00,
2013-04-22 06:11:00,33.1,26.0,30.38,South,180,0.0,0.0,75,0.00,,,0.00,WUHU21623XXSP,2013-04-22 10:11:00,
2013-04-22 06:16:00,32.9,25.5,30.38,SSE,157,2.9,2.9,74,0.00,,,0.00,WUHU21623XXSP,2013-04-22 10:16:00,
2013-04-22 06:21:00,32.7,25.6,30.38,SSE,157,0.0,2.9,75,0.00,,,0.00,WUHU21623XXSP,2013-04-22 10:21:00,
2013-04-22 06:26:00,32.7,26.0,30.38,SSE,157,0.0,2.9,76,0.00,,,0.00,WUHU21623XXSP,2013-04-22 10:26:00,
2013-04-22 06:31:00,32.5,25.6,30.38,SSE,157,0.0,0.0,75,0.00,,,0.00,WUHU21623XXSP,2013-04-22 10:31:00,
2013-04-22 06:36:00,32.4,25.3,30.37,SSE,157,0.0,0.0,75,0.00,,,0.00,WUHU21623XXSP,2013-04-22 10:36:00,
2013-04-22 06:41:00,32.2,25.1,30.38,SSE,157,0.0,0.0,75,0.00,,,0.00,WUHU21623XXSP,2013-04-22 10:41:00,
2013-04-22 06:45:00,31.8,24.8,30.38,SSE,157,0.0,0.0,75,0.00,,,0.00,WUHU21623XXSP,2013-04-22 10:45:00,
2013-04-22 06:50:00,31.8,24.8,30.38,SSE,157,0.0,0.0,75,0.00,,,0.00,WUHU21623XXSP,2013-04-22 10:50:00,
2013-04-22 06:55:00,31.8,24.8,30.38,SSE,157,0.0,0.0,75,0.00,,,0.00,WUHU21623XXSP,2013-04-22 10:55:00,
2013-04-22 07:00:00,31.6,24.6,30.39,SSE,157,0.0,0.0,75,0.00,,,0.00,WUHU21623XXSP,2013-04-22 11:00:00,
2013-04-22 07:05:00,31.6,24.6,30.39,SSE,157,0.0,0.0,75,0.00,,,0.00,WUHU21623XXSP,2013-04-22 11:05:00,
2013-04-22 07:10:00,31.5,24.4,30.39,SSE,157,0.0,0.0,75,0.00,,,0.00,WUHU21623XXSP,2013-04-22 11:10:00,
2013-04-22 07:15:00,31.6,24.4,30.39,SSE,157,0.0,0.0,75,0.00,,,0.00,WUHU21623XXSP,2013-04-22 11:15:00,
2013-04-22 07:20:00,31.6,24.9,30.39,SSE,157,0.0,0.0,76,0.00,,,0.00,WUHU21623XXSP,2013-04-22 11:20:00,
2013-04-22 07:25:00,31.5,24.8,30.39,SSE,157,0.0,0.0,77,0.00,,,0.00,WUHU21623XXSP,2013-04-22 11:25:00,
2013-04-22 07:30:00,31.6,25.3,30.39,SSE,157,0.0,0.0,77,0.00,,,0.00,WUHU21623XXSP,2013-04-22 11:30:00,
2013-04-22 07:35:00,31.8,25.8,30.39,South,180,0.0,0.0,78,0.00,,,0.00,WUHU21623XXSP,2013-04-22 11:35:00,
2013-04-22 07:40:00,31.8,25.8,30.39,NNE,22,0.0,0.0,78,0.00,,,0.00,WUHU21623XXSP,2013-04-22 11:40:00,
2013-04-22 07:45:00,32.4,26.6,30.39,NNE,22,2.2,2.7,79,0.00,,,0.00,WUHU21623XXSP,2013-04-22 11:45:00,
2013-04-22 07:50:00,32.9,27.2,30.39,NE,45,1.1,2.7,80,0.00,,,0.00,WUHU21623XXSP,2013-04-22 11:50:00,
2013-04-22 07:55:00,33.3,27.7,30.39,NNE,22,4.3,4.3,80,0.00,,,0.00,WUHU21623XXSP,2013-04-22 11:55:00,
2013-04-22 08:00:00,33.6,28.1,30.39,NNE,22,8.1,8.1,80,0.00,,,0.00,WUHU21623XXSP,2013-04-22 12:00:00,
2013-04-22 08:05:00,34.0,28.4,30.39,NNE,22,4.0,8.1,80,0.00,,,0.00,WUHU21623XXSP,2013-04-22 12:05:00,
2013-04-22 08:10:00,34.5,28.9,30.39,NNE,22,2.7,4.0,80,0.00,,,0.00,WUHU21623XXSP,2013-04-22 12:10:00,
2013-04-22 08:15:00,34.9,29.6,30.40,South,180,2.7,4.0,81,0.00,,,0.00,WUHU21623XXSP,2013-04-22 12:15:00,
2013-04-22 08:20:00,35.6,30.3,30.40,NE,45,0.0,5.1,81,0.00,,,0.00,WUHU21623XXSP,2013-04-22 12:20:00,
2013-04-22 08:25:00,36.0,30.7,30.40,NE,45,3.4,5.1,81,0.00,,,0.00,WUHU21623XXSP,2013-04-22 12:25:00,
2013-04-22 08:30:00,36.3,31.0,30.40,SSE,157,1.8,3.4,81,0.00,,,0.00,WUHU21623XXSP,2013-04-22 12:30:00,
2013-04-22 08:35:00,36.9,31.3,30.40,South,180,5.4,5.4,80,0.00,,,0.00,WUHU21623XXSP,2013-04-22 12:35:00,
2013-04-22 08:40:00,37.2,31.5,30.40,South,180,2.0,5.4,80,0.00,,,0.00,WUHU21623XXSP,2013-04-22 12:40:00,
2013-04-22 08:45:00,37.8,31.8,30.40,South,180,7.2,7.2,79,0.00,,,0.00,WUHU21623XXSP,2013-04-22 12:45:00,
2013-04-22 08:50:00,38.3,32.1,30.40,South,180,6.9,7.2,78,0.00,,,0.00,WUHU21623XXSP,2013-04-22 12:50:00,
2013-04-22 08:55:00,38.8,32.2,30.40,SSE,157,4.7,6.9,77,0.00,,,0.00,WUHU21623XXSP,2013-04-22 12:55:00,
2013-04-22 09:00:00,39.4,32.4,30.40,South,180,3.1,6.0,76,0.00,,,0.00,WUHU21623XXSP,2013-04-22 13:00:00,
2013-04-22 09:05:00,39.9,32.8,30.40,SSE,157,7.4,7.4,75,0.00,,,0.00,WUHU21623XXSP,2013-04-22 13:05:00,
2013-04-22 09:10:00,40.5,32.8,30.39,NNE,22,6.7,7.4,74,0.00,,,0.00,WUHU21623XXSP,2013-04-22 13:10:00,
2013-04-22 09:15:00,40.8,32.8,30.40,South,180,0.0,6.7,73,0.00,,,0.00,WUHU21623XXSP,2013-04-22 13:15:00,
2013-04-22 09:20:00,41.5,33.0,30.39,NNE,22,6.3,8.5,71,0.00,,,0.00,WUHU21623XXSP,2013-04-22 13:20:00,
2013-04-22 09:25:00,42.1,33.1,30.39,South,180,4.0,8.5,70,0.00,,,0.00,WUHU21623XXSP,2013-04-22 13:25:00,
2013-04-22 09:30:00,42.4,33.0,30.39,South,180,2.9,8.3,69,0.00,,,0.00,WUHU21623XXSP,2013-04-22 13:30:00,
2013-04-22 09:35:00,43.0,32.8,30.38,South,180,7.6,7.6,67,0.00,,,0.00,WUHU21623XXSP,2013-04-22 13:35:00,
2013-04-22 09:40:00,43.3,33.1,30.39,South,180,0.7,7.6,67,0.00,,,0.00,WUHU21623XXSP,2013-04-22 13:40:00,
2013-04-22 09:45:00,43.7,33.1,30.39,South,180,6.5,6.5,66,0.00,,,0.00,WUHU21623XXSP,2013-04-22 13:45:00,
2013-04-22 09:50:00,44.4,33.6,30.39,SSE,157,2.2,6.5,64,0.00,,,0.00,WUHU21623XXSP,2013-04-22 13:50:00,
2013-04-22 09:55:00,44.8,33.3,30.39,South,180,2.0,2.2,64,0.00,,,0.00,WUHU21623XXSP,2013-04-22 13:55:00,
2013-04-22 10:00:00,45.1,33.3,30.38,SSE,157,3.1,6.0,63,0.00,,,0.00,WUHU21623XXSP,2013-04-22 14:00:00,
2013-04-22 10:05:00,45.7,33.4,30.38,South,180,9.4,9.4,62,0.00,,,0.00,WUHU21623XXSP,2013-04-22 14:05:00,
2013-04-22 10:10:00,46.2,33.1,30.38,South,180,1.8,9.4,60,0.00,,,0.00,WUHU21623XXSP,2013-04-22 14:10:00,
2013-04-22 10:15:00,46.6,33.4,30.37,SSE,157,8.7,8.7,60,0.00,,,0.00,WUHU21623XXSP,2013-04-22 14:15:00,
2013-04-22 10:20:00,47.1,33.1,30.37,SSE,157,7.4,8.7,58,0.00,,,0.00,WUHU21623XXSP,2013-04-22 14:20:00,
2013-04-22 10:25:00,47.5,33.2,30.37,SSE,157,3.6,7.4,59,0.00,,,0.00,WUHU21623XXSP,2013-04-22 14:25:00,
2013-04-22 10:30:00,48.0,33.5,30.37,SSE,157,2.7,3.6,57,0.00,,,0.00,WUHU21623XXSP,2013-04-22 14:30:00,
2013-04-22 10:35:00,48.7,33.5,30.37,SSE,157,4.0,7.4,55,0.00,,,0.00,WUHU21623XXSP,2013-04-22 14:35:00,
2013-04-22 10:40:00,48.9,32.8,30.37,South,180,6.0,7.4,53,0.00,,,0.00,WUHU21623XXSP,2013-04-22 14:40:00,
2013-04-22 10:45:00,49.3,32.8,30.37,SSE,157,4.7,6.0,53,0.00,,,0.00,WUHU21623XXSP,2013-04-22 14:45:00,
2013-04-22 10:50:00,49.8,33.4,30.37,South,180,0.0,7.2,53,0.00,,,0.00,WUHU21623XXSP,2013-04-22 14:50:00,
2013-04-22 10:55:00,50.2,33.2,30.38,South,180,0.9,7.2,52,0.00,,,0.00,WUHU21623XXSP,2013-04-22 14:55:00,
2013-04-22 11:00:00,50.7,33.3,30.37,SSE,157,1.6,2.5,51,0.00,,,0.00,WUHU21623XXSP,2013-04-22 15:00:00,
2013-04-22 11:05:00,51.3,33.3,30.37,South,180,1.3,2.5,50,0.00,,,0.00,WUHU21623XXSP,2013-04-22 15:05:00,
2013-04-22 11:10:00,51.6,33.6,30.37,SSE,157,4.0,6.5,50,0.00,,,0.00,WUHU21623XXSP,2013-04-22 15:10:00,
2013-04-22 11:15:00,52.2,34.1,30.37,SSE,157,4.7,6.5,50,0.00,,,0.00,WUHU21623XXSP,2013-04-22 15:15:00,
2013-04-22 11:20:00,52.5,33.3,30.37,SSE,157,1.8,4.7,48,0.00,,,0.00,WUHU21623XXSP,2013-04-22 15:20:00,
2013-04-22 11:25:00,52.9,33.1,30.37,South,180,7.8,8.3,47,0.00,,,0.00,WUHU21623XXSP,2013-04-22 15:25:00,
2013-04-22 11:30:00,53.2,32.9,30.37,South,180,1.3,8.3,46,0.00,,,0.00,WUHU21623XXSP,2013-04-22 15:30:00,
2013-04-22 11:35:00,53.4,33.0,30.36,South,180,4.3,5.4,46,0.00,,,0.00,WUHU21623XXSP,2013-04-22 15:35:00,
2013-04-22 11:40:00,54.0,33.0,30.36,SSE,157,4.5,5.8,45,0.00,,,0.00,WUHU21623XXSP,2013-04-22 15:40:00,
2013-04-22 11:45:00,54.5,32.3,30.36,SSE,157,0.0,5.8,43,0.00,,,0.00,WUHU21623XXSP,2013-04-22 15:45:00,
2013-04-22 11:50:00,54.7,32.5,30.36,SSW,202,0.0,5.4,43,0.00,,,0.00,WUHU21623XXSP,2013-04-22 15:50:00,
2013-04-22 11:55:00,55.4,33.1,30.36,NNE,22,2.5,2.5,43,0.00,,,0.00,WUHU21623XXSP,2013-04-22 15:55:00,
2013-04-22 12:00:00,55.9,32.5,30.36,SSE,157,2.2,2.5,41,0.00,,,0.00,WUHU21623XXSP,2013-04-22 16:00:00,
2013-04-22 12:05:00,56.1,32.1,30.36,SSE,157,4.0,6.0,40,0.00,,,0.00,WUHU21623XXSP,2013-04-22 16:05:00,
2013-04-22 12:10:00,56.1,32.7,30.36,South,180,0.0,6.0,41,0.00,,,0.00,WUHU21623XXSP,2013-04-22 16:10:00,
2013-04-22 12:15:00,56.8,33.3,30.35,SSE,157,7.6,7.6,41,0.00,,,0.00,WUHU21623XXSP,2013-04-22 16:15:00,
2013-04-22 12:20:00,57.0,32.9,30.35,North,0,1.3,8.3,40,0.00,,,0.00,WUHU21623XXSP,2013-04-22 16:20:00,
2013-04-22 12:25:00,57.6,32.5,30.35,South,180,0.0,8.3,42,0.00,,,0.00,WUHU21623XXSP,2013-04-22 16:25:00,
2013-04-22 12:30:00,57.7,32.2,30.35,South,180,6.9,8.3,38,0.00,,,0.00,WUHU21623XXSP,2013-04-22 16:30:00,
2013-04-22 12:35:00,57.9,31.6,30.35,NNE,22,0.0,8.3,37,0.00,,,0.00,WUHU21623XXSP,2013-04-22 16:35:00,
2013-04-22 12:40:00,58.3,32.6,30.35,South,180,1.1,8.1,38,0.00,,,0.00,WUHU21623XXSP,2013-04-22 16:40:00,
2013-04-22 12:45:00,58.8,32.4,30.35,SSE,157,0.0,4.3,37,0.00,,,0.00,WUHU21623XXSP,2013-04-22 16:45:00,
2013-04-22 12:50:00,58.8,31.7,30.34,SSE,157,1.3,2.7,36,0.00,,,0.00,WUHU21623XXSP,2013-04-22 16:50:00,
2013-04-22 12:55:00,58.8,31.7,30.34,SSE,157,1.8,7.4,36,0.00,,,0.00,WUHU21623XXSP,2013-04-22 16:55:00,
2013-04-22 13:00:00,58.8,33.1,30.34,North,0,0.0,7.4,38,0.00,,,0.00,WUHU21623XXSP,2013-04-22 17:00:00,
2013-04-22 13:05:00,59.2,32.7,30.34,NE,45,0.0,2.2,37,0.00,,,0.00,WUHU21623XXSP,2013-04-22 17:05:00,
2013-04-22 13:10:00,59.7,31.8,30.34,SSE,157,2.5,2.5,35,0.00,,,0.00,WUHU21623XXSP,2013-04-22 17:10:00,
2013-04-22 13:15:00,59.2,31.3,30.34,SSW,202,0.0,2.9,35,0.00,,,0.00,WUHU21623XXSP,2013-04-22 17:15:00,
2013-04-22 13:20:00,59.5,32.3,30.33,SSE,157,0.0,2.9,36,0.00,,,0.00,WUHU21623XXSP,2013-04-22 17:20:00,
2013-04-22 13:25:00,59.7,31.1,30.33,SSE,157,0.9,1.6,34,0.00,,,0.00,WUHU21623XXSP,2013-04-22 17:25:00,
2013-04-22 13:30:00,59.9,32.7,30.32,South,180,3.6,3.6,36,0.00,,,0.00,WUHU21623XXSP,2013-04-22 17:30:00,
2013-04-22 13:35:00,60.1,32.1,30.32,SW,225,0.0,4.3,35,0.00,,,0.00,WUHU21623XXSP,2013-04-22 17:35:00,
2013-04-22 13:40:00,60.6,31.8,30.32,South,180,2.9,7.6,34,0.00,,,0.00,WUHU21623XXSP,2013-04-22 17:40:00,
2013-04-22 13:45:00,61.0,32.2,30.32,South,180,2.7,7.6,34,0.00,,,0.00,WUHU21623XXSP,2013-04-22 17:45:00,
2013-04-22 13:50:00,61.3,32.5,30.32,NNE,22,1.6,7.4,34,0.00,,,0.00,WUHU21623XXSP,2013-04-22 17:50:00,
2013-04-22 13:55:00,61.3,31.8,30.31,NNE,22,5.6,5.6,33,0.00,,,0.00,WUHU21623XXSP,2013-04-22 17:55:00,
2013-04-22 14:00:00,61.3,32.5,30.31,NE,45,1.6,5.6,34,0.00,,,0.00,WUHU21623XXSP,2013-04-22 18:00:00,
2013-04-22 14:05:00,61.5,32.6,30.31,SSE,157,7.8,7.8,34,0.00,,,0.00,WUHU21623XXSP,2013-04-22 18:05:00,
2013-04-22 14:10:00,62.1,33.1,30.30,South,180,4.5,7.8,34,0.00,,,0.00,WUHU21623XXSP,2013-04-22 18:10:00,
2013-04-22 14:15:00,62.4,32.7,30.30,NE,45,3.4,4.5,33,0.00,,,0.00,WUHU21623XXSP,2013-04-22 18:15:00,
2013-04-22 14:20:00,62.6,33.6,30.30,South,180,0.0,3.4,34,0.00,,,0.00,WUHU21623XXSP,2013-04-22 18:20:00,
2013-04-22 14:25:00,63.1,33.1,30.29,NE,45,0.0,6.0,33,0.00,,,0.00,WUHU21623XXSP,2013-04-22 18:25:00,
2013-04-22 14:30:00,63.0,33.2,30.29,NNE,22,0.0,6.0,33,0.00,,,0.00,WUHU21623XXSP,2013-04-22 18:30:00,
2013-04-22 14:35:00,63.5,33.0,30.29,NNE,22,4.0,5.6,32,0.00,,,0.00,WUHU21623XXSP,2013-04-22 18:35:00,
2013-04-22 14:40:00,64.6,34.0,30.29,South,180,1.8,8.9,32,0.00,,,0.00,WUHU21623XXSP,2013-04-22 18:40:00,
2013-04-22 14:45:00,64.9,34.3,30.29,North,0,0.0,8.9,32,0.00,,,0.00,WUHU21623XXSP,2013-04-22 18:45:00,
2013-04-22 14:50:00,64.8,34.1,30.29,SE,135,5.1,8.1,32,0.00,,,0.00,WUHU21623XXSP,2013-04-22 18:50:00,
2013-04-22 14:55:00,66.0,33.8,30.29,South,180,6.3,6.9,30,0.00,,,0.00,WUHU21623XXSP,2013-04-22 18:55:00,
2013-04-22 15:00:00,66.4,34.1,30.28,SSE,157,0.0,6.9,30,0.00,,,0.00,WUHU21623XXSP,2013-04-22 19:00:00,
2013-04-22 15:05:00,66.4,32.1,30.28,NNE,22,5.4,6.3,28,0.00,,,0.00,WUHU21623XXSP,2013-04-22 19:05:00,
2013-04-22 15:10:00,65.7,34.2,30.28,SSE,157,8.5,8.5,31,0.00,,,0.00,WUHU21623XXSP,2013-04-22 19:10:00,
2013-04-22 15:15:00,65.8,32.6,30.28,SE,135,6.7,8.5,29,0.00,,,0.00,WUHU21623XXSP,2013-04-22 19:15:00,
2013-04-22 15:20:00,65.8,31.6,30.28,SSE,157,8.5,8.5,28,0.00,,,0.00,WUHU21623XXSP,2013-04-22 19:20:00,
2013-04-22 15:25:00,65.5,31.3,30.28,South,180,1.3,8.7,28,0.00,,,0.00,WUHU21623XXSP,2013-04-22 19:25:00,
2013-04-22 15:30:00,65.3,31.2,30.28,South,180,9.2,9.2,28,0.00,,,0.00,WUHU21623XXSP,2013-04-22 19:30:00,
2013-04-22 15:35:00,65.3,31.2,30.27,South,180,6.9,9.2,28,0.00,,,0.00,WUHU21623XXSP,2013-04-22 19:35:00,
2013-04-22 15:40:00,65.8,33.7,30.27,South,180,0.0,6.9,30,0.00,,,0.00,WUHU21623XXSP,2013-04-22 19:40:00,
2013-04-22 15:45:00,66.0,32.8,30.27,SSE,157,5.8,5.8,29,0.00,,,0.00,WUHU21623XXSP,2013-04-22 19:45:00,
2013-04-22 15:50:00,66.6,31.2,30.27,SSE,157,7.8,7.8,27,0.00,,,0.00,WUHU21623XXSP,2013-04-22 19:50:00,
2013-04-22 15:55:00,66.4,31.1,30.26,South,180,0.9,7.8,27,0.00,,,0.00,WUHU21623XXSP,2013-04-22 19:55:00,
2013-04-22 16:00:00,66.7,31.4,30.26,South,180,6.9,7.4,27,0.00,,,0.00,WUHU21623XXSP,2013-04-22 20:00:00,
2013-04-22 16:05:00,66.7,31.4,30.26,SE,135,0.0,7.4,27,0.00,,,0.00,WUHU21623XXSP,2013-04-22 20:05:00,
2013-04-22 16:10:00,66.9,31.6,30.25,SSE,157,0.2,5.4,27,0.00,,,0.00,WUHU21623XXSP,2013-04-22 20:10:00,
2013-04-22 16:15:00,66.9,31.6,30.25,SSE,157,6.7,6.7,27,0.00,,,0.00,WUHU21623XXSP,2013-04-22 20:15:00,
2013-04-22 16:20:00,66.9,31.6,30.25,SSE,157,2.0,6.7,27,0.00,,,0.00,WUHU21623XXSP,2013-04-22 20:20:00,
2013-04-22 16:25:00,66.9,31.6,30.25,East,90,1.8,2.7,27,0.00,,,0.00,WUHU21623XXSP,2013-04-22 20:25:00,
2013-04-22 16:29:00,66.9,31.6,30.24,ENE,67,7.8,7.8,27,0.00,,,0.00,WUHU21623XXSP,2013-04-22 20:29:00,
2013-04-22 16:34:00,66.9,31.6,30.25,SE,135,5.8,7.8,27,0.00,,,0.00,WUHU21623XXSP,2013-04-22 20:34:00,
2013-04-22 16:39:00,67.5,32.0,30.24,SSE,157,0.0,5.8,27,0.00,,,0.00,WUHU21623XXSP,2013-04-22 20:39:00,
2013-04-22 16:44:00,67.8,32.3,30.24,SSE,157,1.8,2.0,27,0.00,,,0.00,WUHU21623XXSP,2013-04-22 20:44:00,
2013-04-22 16:49:00,68.0,31.5,30.24,SE,135,3.1,3.1,26,0.00,,,0.00,WUHU21623XXSP,2013-04-22 20:49:00,
2013-04-22 16:54:00,67.8,31.3,30.24,SSE,157,1.3,3.1,26,0.00,,,0.00,WUHU21623XXSP,2013-04-22 20:54:00,
2013-04-22 16:59:00,67.8,31.3,30.24,South,180,7.4,7.4,26,0.00,,,0.00,WUHU21623XXSP,2013-04-22 20:59:00,
2013-04-22 17:04:00,67.6,31.2,30.24,SSE,157,5.6,7.4,26,0.00,,,0.00,WUHU21623XXSP,2013-04-22 21:04:00,
2013-04-22 17:09:00,67.3,30.8,30.23,South,174,4.9,7.4,26,0.00,,,0.00,WUHU21623XXSP,2013-04-22 21:09:00,
2013-04-22 17:14:00,67.6,31.2,30.24,SSE,157,1.8,7.4,26,0.00,,,0.00,WUHU21623XXSP,2013-04-22 21:14:00,
2013-04-22 17:19:00,67.8,31.3,30.23,NNE,22,3.4,5.8,26,0.00,,,0.00,WUHU21623XXSP,2013-04-22 21:19:00,
2013-04-22 17:24:00,67.8,32.3,30.23,South,180,0.0,3.4,27,0.00,,,0.00,WUHU21623XXSP,2013-04-22 21:24:00,
2013-04-22 17:29:00,68.4,31.8,30.23,SSE,157,0.0,5.6,26,0.00,,,0.00,WUHU21623XXSP,2013-04-22 21:29:00,
2013-04-22 17:34:00,68.5,31.9,30.23,SSE,157,6.0,6.0,26,0.00,,,0.00,WUHU21623XXSP,2013-04-22 21:34:00,
2013-04-22 17:39:00,69.1,32.4,30.22,South,180,12.3,12.3,26,0.00,,,0.00,WUHU21623XXSP,2013-04-22 21:39:00,
2013-04-22 17:44:00,69.3,32.5,30.22,SSE,157,4.9,12.3,26,0.00,,,0.00,WUHU21623XXSP,2013-04-22 21:44:00,
2013-04-22 17:49:00,68.9,32.2,30.23,South,180,6.0,8.1,26,0.00,,,0.00,WUHU21623XXSP,2013-04-22 21:49:00,
2013-04-22 17:54:00,68.7,32.1,30.22,South,180,4.3,8.3,26,0.00,,,0.00,WUHU21623XXSP,2013-04-22 21:54:00,
2013-04-22 17:59:00,68.2,31.6,30.22,South,180,5.6,9.4,26,0.00,,,0.00,WUHU21623XXSP,2013-04-22 21:59:00,
2013-04-22 18:04:00,67.5,30.0,30.22,South,180,7.4,9.4,25,0.00,,,0.00,WUHU21623XXSP,2013-04-22 22:04:00,
2013-04-22 18:09:00,66.9,30.5,30.22,SSE,157,3.1,9.2,26,0.00,,,0.00,WUHU21623XXSP,2013-04-22 22:09:00,
2013-04-22 18:14:00,66.4,29.1,30.22,SE,135,1.1,3.4,25,0.00,,,0.00,WUHU21623XXSP,2013-04-22 22:14:00,
2013-04-22 18:19:00,66.4,30.1,30.22,SSE,157,1.6,6.5,26,0.00,,,0.00,WUHU21623XXSP,2013-04-22 22:19:00,
2013-04-22 18:24:00,66.4,30.1,30.21,South,180,7.6,7.6,26,0.00,,,0.00,WUHU21623XXSP,2013-04-22 22:24:00,
2013-04-22 18:29:00,66.2,29.9,30.21,South,180,2.2,7.6,26,0.00,,,0.00,WUHU21623XXSP,2013-04-22 22:29:00,
2013-04-22 18:34:00,66.0,30.8,30.21,NNE,22,4.0,4.0,27,0.00,,,0.00,WUHU21623XXSP,2013-04-22 22:34:00,
2013-04-22 18:39:00,65.8,30.6,30.21,South,180,2.2,8.7,27,0.00,,,0.00,WUHU21623XXSP,2013-04-22 22:39:00,
2013-04-22 18:44:00,65.7,30.5,30.21,SSE,157,0.0,8.7,27,0.00,,,0.00,WUHU21623XXSP,2013-04-22 22:44:00,
2013-04-22 18:49:00,65.3,30.2,30.20,SSE,157,8.3,8.3,27,0.00,,,0.00,WUHU21623XXSP,2013-04-22 22:49:00,
2013-04-22 18:54:00,64.2,30.2,30.20,South,180,5.6,14.3,28,0.00,,,0.00,WUHU21623XXSP,2013-04-22 22:54:00,
2013-04-22 18:59:00,63.9,29.9,30.20,SSE,157,7.2,14.3,28,0.00,,,0.00,WUHU21623XXSP,2013-04-22 22:59:00,
2013-04-22 19:04:00,63.1,30.2,30.19,NE,45,11.2,11.2,29,0.00,,,0.00,WUHU21623XXSP,2013-04-22 23:04:00,
2013-04-22 19:09:00,62.4,29.6,30.19,SSE,157,6.9,11.2,29,0.00,,,0.00,WUHU21623XXSP,2013-04-22 23:09:00,
2013-04-22 19:14:00,61.9,29.1,30.20,South,180,14.5,14.5,29,0.00,,,0.00,WUHU21623XXSP,2013-04-22 23:14:00,
2013-04-22 19:19:00,61.3,29.6,30.19,South,180,8.9,14.5,30,0.00,,,0.00,WUHU21623XXSP,2013-04-22 23:19:00,
2013-04-22 19:24:00,60.6,28.0,30.20,South,180,8.1,8.9,29,0.00,,,0.00,WUHU21623XXSP,2013-04-22 23:24:00,
2013-04-22 19:29:00,60.4,27.9,30.20,SSE,157,10.1,10.1,29,0.00,,,0.00,WUHU21623XXSP,2013-04-22 23:29:00,
2013-04-22 19:34:00,59.7,26.3,30.20,South,180,6.5,10.1,28,0.00,,,0.00,WUHU21623XXSP,2013-04-22 23:34:00,
2013-04-22 19:39:00,58.8,25.6,30.20,South,180,5.4,7.4,28,0.00,,,0.00,WUHU21623XXSP,2013-04-22 23:39:00,
2013-04-22 19:44:00,58.8,25.6,30.20,SSE,157,3.8,7.4,28,0.00,,,0.00,WUHU21623XXSP,2013-04-22 23:44:00,
2013-04-22 19:49:00,58.3,25.1,30.20,South,180,4.5,8.9,28,0.00,,,0.00,WUHU21623XXSP,2013-04-22 23:49:00,
2013-04-22 19:54:00,57.7,24.6,30.20,SSE,157,0.0,8.9,28,0.00,,,0.00,WUHU21623XXSP,2013-04-22 23:54:00,
2013-04-22 19:59:00,57.4,24.3,30.20,SSE,157,4.5,4.5,28,0.00,,,0.00,WUHU21623XXSP,2013-04-22 23:59:00,
2013-04-22 20:04:00,57.0,23.0,30.20,South,180,3.4,9.4,27,0.00,,,0.00,WUHU21623XXSP,2013-04-23 00:04:00,
2013-04-22 20:09:00,56.5,23.5,30.21,SSE,157,0.0,9.4,28,0.00,,,0.00,WUHU21623XXSP,2013-04-23 00:09:00,
2013-04-22 20:14:00,56.1,23.2,30.21,SSE,157,2.7,5.6,28,0.00,,,0.00,WUHU21623XXSP,2013-04-23 00:14:00,
2013-04-22 20:19:00,55.6,23.6,30.20,SSE,157,0.0,2.7,29,0.00,,,0.00,WUHU21623XXSP,2013-04-23 00:19:00,
2013-04-22 20:24:00,55.2,25.0,30.20,SSE,157,2.2,2.7,31,0.00,,,0.00,WUHU21623XXSP,2013-04-23 00:24:00,
2013-04-22 20:29:00,54.7,23.9,30.20,SSE,157,1.1,4.0,30,0.00,,,0.00,WUHU21623XXSP,2013-04-23 00:29:00,
2013-04-22 20:34:00,54.0,24.0,30.20,SSE,157,0.0,4.0,31,0.00,,,0.00,WUHU21623XXSP,2013-04-23 00:34:00,
2013-04-22 20:39:00,53.4,24.2,30.20,SSE,157,0.0,3.4,32,0.00,,,0.00,WUHU21623XXSP,2013-04-23 00:39:00,
2013-04-22 20:44:00,52.9,24.4,30.20,SSE,157,0.0,3.4,33,0.00,,,0.00,WUHU21623XXSP,2013-04-23 00:44:00,
2013-04-22 20:49:00,52.2,23.8,30.20,SSE,157,0.0,0.0,33,0.00,,,0.00,WUHU21623XXSP,2013-04-23 00:49:00,
2013-04-22 20:54:00,51.6,24.0,30.20,South,180,1.8,1.8,34,0.00,,,0.00,WUHU21623XXSP,2013-04-23 00:54:00,
2013-04-22 20:59:00,51.3,23.8,30.20,South,180,0.0,1.8,34,0.00,,,0.00,WUHU21623XXSP,2013-04-23 00:59:00,
2013-04-22 21:04:00,50.7,23.8,30.20,South,180,0.0,0.0,35,0.00,,,0.00,WUHU21623XXSP,2013-04-23 01:04:00,
2013-04-22 21:09:00,50.2,24.0,30.20,South,180,0.0,2.7,36,0.00,,,0.00,WUHU21623XXSP,2013-04-23 01:09:00,
2013-04-22 21:14:00,49.8,24.4,30.20,South,180,0.0,2.7,37,0.00,,,0.00,WUHU21623XXSP,2013-04-23 01:14:00,
2013-04-22 21:19:00,49.6,24.9,30.20,South,180,0.0,0.0,38,0.00,,,0.00,WUHU21623XXSP,2013-04-23 01:19:00,
2013-04-22 21:24:00,49.1,25.8,30.20,SSE,157,4.0,4.0,40,0.00,,,0.00,WUHU21623XXSP,2013-04-23 01:24:00,
2013-04-22 21:29:00,49.1,26.3,30.20,South,180,2.0,8.5,41,0.00,,,0.00,WUHU21623XXSP,2013-04-23 01:29:00,
2013-04-22 21:34:00,49.1,26.3,30.20,South,180,0.0,8.5,41,0.00,,,0.00,WUHU21623XXSP,2013-04-23 01:34:00,
2013-04-22 21:39:00,48.9,27.3,30.20,South,180,6.3,6.3,43,0.00,,,0.00,WUHU21623XXSP,2013-04-23 01:39:00,
2013-04-22 21:44:00,49.1,27.4,30.20,South,180,4.3,6.3,43,0.00,,,0.00,WUHU21623XXSP,2013-04-23 01:44:00,
2013-04-22 21:49:00,49.1,27.4,30.20,South,180,0.0,5.1,43,0.00,,,0.00,WUHU21623XXSP,2013-04-23 01:49:00,
2013-04-22 21:54:00,48.9,27.8,30.21,South,180,0.0,0.9,44,0.00,,,0.00,WUHU21623XXSP,2013-04-23 01:54:00,
2013-04-22 21:59:00,48.9,27.8,30.21,South,180,2.5,2.5,44,0.00,,,0.00,WUHU21623XXSP,2013-04-23 01:59:00,
2013-04-22 22:04:00,48.7,28.2,30.21,South,180,3.1,4.7,45,0.00,,,0.00,WUHU21623XXSP,2013-04-23 02:04:00,
2013-04-22 22:09:00,48.6,28.6,30.21,SSE,157,0.0,4.7,46,0.00,,,0.00,WUHU21623XXSP,2013-04-23 02:09:00,
2013-04-22 22:14:00,48.4,28.4,30.21,South,180,2.9,3.1,46,0.00,,,0.00,WUHU21623XXSP,2013-04-23 02:14:00,
2013-04-22 22:19:00,48.0,28.1,30.21,South,180,3.1,3.1,46,0.00,,,0.00,WUHU21623XXSP,2013-04-23 02:19:00,
2013-04-22 22:24:00,47.8,28.6,30.21,South,180,0.0,3.1,47,0.00,,,0.00,WUHU21623XXSP,2013-04-23 02:24:00,
2013-04-22 22:29:00,47.5,28.1,30.21,South,180,0.0,3.1,47,0.00,,,0.00,WUHU21623XXSP,2013-04-23 02:29:00,
2013-04-22 22:34:00,47.1,27.8,30.21,South,180,1.3,1.3,47,0.00,,,0.00,WUHU21623XXSP,2013-04-23 02:34:00,
2013-04-22 22:39:00,46.9,27.6,30.21,South,180,0.0,1.3,47,0.00,,,0.00,WUHU21623XXSP,2013-04-23 02:39:00,
2013-04-22 22:44:00,46.6,27.8,30.21,South,180,0.0,0.0,48,0.00,,,0.00,WUHU21623XXSP,2013-04-23 02:44:00,
2013-04-22 22:49:00,46.2,27.5,30.21,South,180,0.0,0.0,48,0.00,,,0.00,WUHU21623XXSP,2013-04-23 02:49:00,
2013-04-22 22:54:00,46.0,27.4,30.21,South,180,2.0,2.0,48,0.00,,,0.00,WUHU21623XXSP,2013-04-23 02:54:00,
2013-04-22 22:59:00,45.7,28.1,30.21,South,180,2.5,2.5,50,0.00,,,0.00,WUHU21623XXSP,2013-04-23 02:59:00,
2013-04-22 23:04:00,45.7,28.1,30.21,South,180,2.5,2.5,50,0.00,,,0.00,WUHU21623XXSP,2013-04-23 03:04:00,
2013-04-22 23:09:00,45.3,28.2,30.21,NNE,22,0.0,2.5,51,0.00,,,0.00,WUHU21623XXSP,2013-04-23 03:09:00,
2013-04-22 23:14:00,45.3,28.7,30.21,NNE,22,6.5,6.5,52,0.00,,,0.00,WUHU21623XXSP,2013-04-23 03:14:00,
2013-04-22 23:19:00,45.1,29.0,30.22,South,180,0.0,6.5,53,0.00,,,0.00,WUHU21623XXSP,2013-04-23 03:19:00,
2013-04-22 23:24:00,45.1,29.4,30.21,South,180,0.0,4.5,54,0.00,,,0.00,WUHU21623XXSP,2013-04-23 03:24:00,
2013-04-22 23:29:00,45.1,29.4,30.21,South,180,2.5,4.5,54,0.00,,,0.00,WUHU21623XXSP,2013-04-23 03:29:00,
2013-04-22 23:34:00,45.1,29.4,30.21,South,180,1.3,2.5,55,0.00,,,0.00,WUHU21623XXSP,2013-04-23 03:34:00,
2013-04-22 23:39:00,45.1,29.9,30.21,South,180,3.4,3.4,55,0.00,,,0.00,WUHU21623XXSP,2013-04-23 03:39:00,
2013-04-22 23:44:00,45.1,30.3,30.20,South,180,3.8,3.8,56,0.00,,,0.00,WUHU21623XXSP,2013-04-23 03:44:00,
2013-04-22 23:49:00,45.1,30.8,30.20,South,180,2.9,3.8,57,0.00,,,0.00,WUHU21623XXSP,2013-04-23 03:49:00,
2013-04-22 23:54:00,45.3,30.9,30.20,South,180,2.9,6.5,57,0.00,,,0.00,WUHU21623XXSP,2013-04-23 03:54:00,
2013-04-22 23:59:00,45.7,31.3,30.20,South,180,6.0,6.5,57,0.00,,,0.00,WUHU21623XXSP,2013-04-23 03:59:00,